Terminal Aerodrome Forecast
Issued by NWS

Home | Current Version | Previous Version | Text Only | Print | Product List | Glossary On
Versions: 1 2 3 4 5 6 7 8 9 10 11 12 13 14 15 16 17 18 19 20
000
FTUS45 KGJT 270538
TAFEGE
TAF
KEGE 270538Z 2706/2806 09003KT P6SM VCSH SCT070 BKN100
     FM271800 31008KT P6SM VCSH SCT070 BKN120
     FM280300 09003KT P6SM BKN120
      AMD LTD TO CLD VIS AND WIND TIL 271400=

USA.gov is the U.S. government's official web portal to all federal, state and local government web resources and services.